Blue Ridge, GA

2:53 AM EST on March 06, 2015 (GMT -0500)
Blue Ridge, GA - Intown | Change Station
CLOSE
Current Station
Personal Weather Station
Location: Blue Ridge, GA
Elevation: 1722 ft
Nearby Weather Stations
Active Advisory: Special Statement

Elev 1722 ft 34.87 °N, 84.32 °W | Updated 2 seconds ago

Mostly Cloudy
Mostly Cloudy
21.7 °F
Feels Like 22 °F
N
0.0
Wind Variable Wind from WSW
Gusts 0.0 mph

Today
High -- | Low -- °F
--% Chance of Precip.
Yesterday
High -- | Low -- °F
Precip. -- in
7:00 AM 6:37 PM
Full, 100% visible
Pressure 30.40 in
Visibility 10.0 miles
Clouds Scattered Clouds 1800 ft
Windchill 22 °F
Dew Point 17 °F
Humidity 81%
Rainfall in
Snow Depth Not available.
UV 0.0 out of 12
Pollen .80 out of 12
Air Quality Not available.
Flu Activity Not available.
METAR KDNN 060735Z AUTO 34010G23KT 10SM SCT018 M05/M07 A3040 RMK AO2

More Conditions Fewer Conditions

Pressure 30.40 in
Visibility 10.0 miles
Clouds Scattered Clouds 1800 ft
Windchill 22 °F
Dew Point 17 °F
Humidity 81%
Rainfall in
Snow Depth Not available.
UV 0.0 out of 12
Pollen .80 out of 12
Air Quality Not available.
Flu Activity Not available.
METAR KDNN 060735Z AUTO 34010G23KT 10SM SCT018 M05/M07 A3040 RMK AO2

More Conditions Fewer Conditions

10-Day Weather Forecast

Almanac

Astronomy

Mar. 06, 2015 Rise Set
Actual Time
Civil Twilight
Nautical Twilight
Astronomical Twilight
Moon
Length of Visible Light
Length of Day
Tomorrow will be .
, % of the Moon is Illuminated

Today's Extremes

State Highs State Lows

Community

WunderPhotos

Upload Photos

1,803,199 photos uploaded!

WunderBlogs® & News

Nearby

Air Quality

  Air Quality AQ Index Pollutant
Not available.

Snow Depth

Station Depth Elevation

Earthquake Activity

City Distance Mag. Time & Date
Minimum magnitude displayed is 2.5.

Coastal Water Temperatures

Place Temperature

Nearby Weather Stations

Special Statement
Statement as of 2:56 PM EST on March 05, 2015

... Patchy black ice likely across north and much of central
Georgia tonight...

As a very cold air mass continues to spread in over the state
this evening and overnight... temperatures will fall at or below
freezing for most areas. This coupled with wet grounds from
widespread rains will result in patches of black ice... resulting
in slick spots on area roads and bridges. The main black ice
threat tonight will be generally along and north of a Columbus to
Macon to Warrenton line... and through Friday morning.

People traveling across north and much of central Georgia
tonight and Friday morning should use extra caution and be
prepared for slick spots on roads.